Festos Palace — SYNR — position and weather

sailwx.info

Track history (hours):
 
Tides and Currents Weather Stations Pressure Air Temp Water Temp Dewpoint Dewpoint Depression Visibility Wind Speed Wind Dir Waves Ship Positions

Festos Palace

Last reported at 2017-Nov-24 07:00 UTC. Time now 2017-Nov-24 07:23 UTC.
Position N 37°57' E 023°38'.

Length 214 m; draft 6.7 m.

Type: Ship. MMSI: 237611000.

Date/timePositionNaut miles runAvg speedWind from/ knotsBaromVisibWave heightAir tempDewpointWater temp
2017-Nov-24 07:00N 37°57' E 023°38'0 0.0
2017-Nov-24 06:30N 37°57' E 023°38'0 0.0
2017-Nov-24 06:00N 37°57' E 023°38'0 0.0
2017-Nov-24 05:30N 37°57' E 023°38'0 0.0
2017-Nov-24 05:00N 37°57' E 023°38'0 0.1
2017-Nov-24 04:30N 37°57' E 023°38'510.6
2017-Nov-24 04:00N 37°51' E 023°39'1019.4
2017-Nov-24 03:31N 37°43' E 023°45'918.6
2017-Nov-24 03:00N 37°34' E 023°49'1319.7
2017-Nov-24 02:20N 37°21' E 023°54'619.8
2017-Nov-24 02:01N 37°15' E 023°57'1020.4
2017-Nov-24 01:30N 37°06' E 024°02'1020.6
2017-Nov-24 01:00N 36°56' E 024°06'1120.8
2017-Nov-24 00:30N 36°46' E 024°11'1020.8
2017-Nov-24 00:00N 36°37' E 024°16'1020.7
2017-Nov-23 23:30N 36°28' E 024°22'1020.9
2017-Nov-23 23:01N 36°19' E 024°28'1020.9
2017-Nov-23 22:30N 36°10' E 024°35'1020.9
2017-Nov-23 22:00N 36°01' E 024°41'1020.7
2017-Nov-23 21:31N 35°52' E 024°48'2720.4
2017-Nov-23 20:11N 35°28' E 025°05'421.0
2017-Nov-23 20:00N 35°25' E 025°07'5 1.0
2017-Nov-23 15:19N 35°21' E 025°09'87 5.6
2017-Nov-22 23:45N 36°37' E 024°16'619.3
2017-Nov-22 23:28N 36°41' E 024°13'919.6
2017-Nov-22 23:00N 36°49' E 024°07'1019.4
2017-Nov-22 22:30N 36°58' E 024°03'1019.6
2017-Nov-22 22:00N 37°08' E 023°58'1019.5
2017-Nov-22 21:30N 37°17' E 023°54'1019.7
2017-Nov-22 20:59N 37°26' E 023°50'1019.6
2017-Nov-22 20:29N 37°35' E 023°45'1020.1
2017-Nov-22 20:00N 37°44' E 023°40'1020.0
2017-Nov-22 19:30N 37°54' E 023°37'  
2017-Nov-18 20:31N 37°36' E 023°45'719.6
2017-Nov-18 20:10N 37°42' E 023°42'319.9
2017-Nov-18 20:00N 37°45' E 023°40'1019.4
2017-Nov-18 19:31N 37°54' E 023°37'3 5.1
2017-Nov-18 18:58N 37°57' E 023°38'0 0.0
2017-Nov-18 17:33N 37°57' E 023°38'0 0.0
2017-Nov-18 17:24N 37°57' E 023°38'0 0.0
2017-Nov-18 15:11N 37°57' E 023°38'0 0.0
2017-Nov-18 14:53N 37°57' E 023°38'0 0.0
2017-Nov-18 13:22N 37°57' E 023°38'0 0.0
2017-Nov-18 12:49N 37°57' E 023°38'0 0.0
2017-Nov-18 12:28N 37°57' E 023°38'0 0.0
2017-Nov-18 11:57N 37°57' E 023°38'0 0.0
2017-Nov-18 09:20N 37°57' E 023°38'0 0.0
2017-Nov-18 08:29N 37°57' E 023°38'0 0.0
2017-Nov-18 07:56N 37°57' E 023°38'0 0.0
2017-Nov-18 07:30N 37°57' E 023°38'0 0.0
2017-Nov-18 07:00N 37°57' E 023°38'0 0.0
2017-Nov-18 06:29N 37°57' E 023°38'0 0.0
2017-Nov-18 06:00N 37°57' E 023°38'0 0.0
2017-Nov-18 05:30N 37°57' E 023°38'0 0.0
2017-Nov-18 05:00N 37°57' E 023°38'0 0.1
2017-Nov-18 04:30N 37°57' E 023°38'510.5
2017-Nov-18 04:01N 37°52' E 023°39'1419.7
2017-Nov-18 03:17N 37°38' E 023°47'5 0.2
2017-Nov-16 20:45N 37°33' E 023°46'621.4
2017-Nov-16 20:29N 37°39' E 023°43'918.6
2017-Nov-16 20:00N 37°47' E 023°39'714.2
2017-Nov-16 19:30N 37°54' E 023°37'3 6.2
2017-Nov-16 19:00N 37°57' E 023°38'0 0.0
2017-Nov-16 18:30N 37°57' E 023°38'0 0.0
2017-Nov-16 17:58N 37°57' E 023°38'0 0.0
2017-Nov-16 17:28N 37°57' E 023°38'0 0.0
2017-Nov-16 16:58N 37°57' E 023°38'0 0.0
2017-Nov-16 16:28N 37°57' E 023°38'0 0.0
2017-Nov-16 16:00N 37°57' E 023°38'0 0.0
2017-Nov-16 15:30N 37°57' E 023°38'0 0.0
2017-Nov-16 15:00N 37°57' E 023°38'0 0.0
2017-Nov-16 14:30N 37°57' E 023°38'0 0.0
2017-Nov-16 13:59N 37°57' E 023°38'0 0.0
2017-Nov-16 13:29N 37°57' E 023°38'0 0.0
2017-Nov-16 12:59N 37°57' E 023°38'0 0.0
2017-Nov-16 12:29N 37°57' E 023°38'0 0.0
2017-Nov-16 11:59N 37°57' E 023°38'0 0.0
2017-Nov-16 11:28N 37°57' E 023°38'0 0.0
2017-Nov-16 10:58N 37°57' E 023°38'0 0.0
2017-Nov-16 10:28N 37°57' E 023°38'0 0.0
2017-Nov-16 09:58N 37°57' E 023°38'0 0.0
2017-Nov-16 09:30N 37°57' E 023°38'0 0.0
2017-Nov-16 09:00N 37°57' E 023°38'0 0.0
2017-Nov-16 08:30N 37°57' E 023°38'0 0.0
2017-Nov-16 08:00N 37°57' E 023°38'0 0.0
2017-Nov-16 07:30N 37°57' E 023°38'0 0.0
2017-Nov-16 07:00N 37°57' E 023°38'0 0.0
2017-Nov-16 06:30N 37°57' E 023°38'0 0.0
2017-Nov-16 06:00N 37°57' E 023°38'0 0.0
2017-Nov-16 05:30N 37°57' E 023°38'0 0.0
2017-Nov-16 05:00N 37°57' E 023°38'0 0.1
2017-Nov-16 04:30N 37°57' E 023°38'510.0
2017-Nov-16 04:01N 37°52' E 023°39'1020.0
2017-Nov-16 03:31N 37°42' E 023°44'1120.1
2017-Nov-16 02:58N 37°32' E 023°49'3 0.1
2017-Nov-14 20:44N 37°33' E 023°46'420.1
2017-Nov-14 20:30N 37°37' E 023°44'1020.1
2017-Nov-14 20:00N 37°47' E 023°39'918.8
2017-Nov-14 19:30N 37°56' E 023°37'1 2.5
2017-Nov-14 19:00N 37°57' E 023°38'0 0.0
2017-Nov-14 18:30N 37°57' E 023°38'0 0.0
2017-Nov-14 18:00N 37°57' E 023°38'0 0.0
2017-Nov-14 17:30N 37°57' E 023°38'0 0.0
2017-Nov-14 17:00N 37°57' E 023°38'0 0.0
2017-Nov-14 16:30N 37°57' E 023°38'0 0.0
2017-Nov-14 16:00N 37°57' E 023°38'0 0.0
2017-Nov-14 15:30N 37°57' E 023°38'0 0.0
2017-Nov-14 15:00N 37°57' E 023°38'0 0.0
2017-Nov-14 14:30N 37°57' E 023°38'0 0.0
2017-Nov-14 14:00N 37°57' E 023°38'0 0.0
2017-Nov-14 13:30N 37°57' E 023°38'0 0.0
2017-Nov-14 13:01N 37°57' E 023°38'0 0.0
2017-Nov-14 12:30N 37°57' E 023°38'0 0.0
2017-Nov-14 12:00N 37°57' E 023°38'0 0.0
2017-Nov-14 11:30N 37°57' E 023°38'0 0.0
2017-Nov-14 11:00N 37°57' E 023°38'0 0.0
2017-Nov-14 10:30N 37°57' E 023°38'0 0.0
2017-Nov-14 10:00N 37°57' E 023°38'0 0.0
2017-Nov-14 09:31N 37°57' E 023°38'0 0.0
2017-Nov-14 09:01N 37°57' E 023°38'0 0.0
2017-Nov-14 08:30N 37°57' E 023°38'0 0.0
2017-Nov-14 08:00N 37°57' E 023°38'0 0.0
2017-Nov-14 07:31N 37°57' E 023°38'  
Track history (hours):
 
Tides and Currents Weather Stations Pressure Air Temp Water Temp Dewpoint Dewpoint Depression Visibility Wind Speed Wind Dir Waves Ship Positions

Festos Palace

Last reported at 2017-Nov-24 07:00 UTC. Time now 2017-Nov-24 07:23 UTC.
Position N 37°57' E 023°38'.

Length 214 m; draft 6.7 m.

Type: Ship. MMSI: 237611000.

Date/timePositionNaut miles runAvg speedWind from/ knotsBaromVisibWave heightAir tempDewpointWater temp
2017-Nov-24 07:00N 37°57' E 023°38'0 0.0
2017-Nov-24 06:30N 37°57' E 023°38'0 0.0
2017-Nov-24 06:00N 37°57' E 023°38'0 0.0
2017-Nov-24 05:30N 37°57' E 023°38'0 0.0
2017-Nov-24 05:00N 37°57' E 023°38'0 0.1
2017-Nov-24 04:30N 37°57' E 023°38'510.6
2017-Nov-24 04:00N 37°51' E 023°39'1019.4
2017-Nov-24 03:31N 37°43' E 023°45'918.6
2017-Nov-24 03:00N 37°34' E 023°49'1319.7
2017-Nov-24 02:20N 37°21' E 023°54'619.8
2017-Nov-24 02:01N 37°15' E 023°57'1020.4
2017-Nov-24 01:30N 37°06' E 024°02'1020.6
2017-Nov-24 01:00N 36°56' E 024°06'1120.8
2017-Nov-24 00:30N 36°46' E 024°11'1020.8
2017-Nov-24 00:00N 36°37' E 024°16'1020.7
2017-Nov-23 23:30N 36°28' E 024°22'1020.9
2017-Nov-23 23:01N 36°19' E 024°28'1020.9
2017-Nov-23 22:30N 36°10' E 024°35'1020.9
2017-Nov-23 22:00N 36°01' E 024°41'1020.7
2017-Nov-23 21:31N 35°52' E 024°48'2720.4
2017-Nov-23 20:11N 35°28' E 025°05'421.0
2017-Nov-23 20:00N 35°25' E 025°07'5 1.0
2017-Nov-23 15:19N 35°21' E 025°09'87 5.6
2017-Nov-22 23:45N 36°37' E 024°16'619.3
2017-Nov-22 23:28N 36°41' E 024°13'919.6
2017-Nov-22 23:00N 36°49' E 024°07'1019.4
2017-Nov-22 22:30N 36°58' E 024°03'1019.6
2017-Nov-22 22:00N 37°08' E 023°58'1019.5
2017-Nov-22 21:30N 37°17' E 023°54'1019.7
2017-Nov-22 20:59N 37°26' E 023°50'1019.6
2017-Nov-22 20:29N 37°35' E 023°45'1020.1
2017-Nov-22 20:00N 37°44' E 023°40'1020.0
2017-Nov-22 19:30N 37°54' E 023°37'  
2017-Nov-18 20:31N 37°36' E 023°45'719.6
2017-Nov-18 20:10N 37°42' E 023°42'319.9
2017-Nov-18 20:00N 37°45' E 023°40'1019.4
2017-Nov-18 19:31N 37°54' E 023°37'3 5.1
2017-Nov-18 18:58N 37°57' E 023°38'0 0.0
2017-Nov-18 17:33N 37°57' E 023°38'0 0.0
2017-Nov-18 17:24N 37°57' E 023°38'0 0.0
2017-Nov-18 15:11N 37°57' E 023°38'0 0.0
2017-Nov-18 14:53N 37°57' E 023°38'0 0.0
2017-Nov-18 13:22N 37°57' E 023°38'0 0.0
2017-Nov-18 12:49N 37°57' E 023°38'0 0.0
2017-Nov-18 12:28N 37°57' E 023°38'0 0.0
2017-Nov-18 11:57N 37°57' E 023°38'0 0.0
2017-Nov-18 09:20N 37°57' E 023°38'0 0.0
2017-Nov-18 08:29N 37°57' E 023°38'0 0.0
2017-Nov-18 07:56N 37°57' E 023°38'0 0.0
2017-Nov-18 07:30N 37°57' E 023°38'0 0.0
2017-Nov-18 07:00N 37°57' E 023°38'0 0.0
2017-Nov-18 06:29N 37°57' E 023°38'0 0.0
2017-Nov-18 06:00N 37°57' E 023°38'0 0.0
2017-Nov-18 05:30N 37°57' E 023°38'0 0.0
2017-Nov-18 05:00N 37°57' E 023°38'0 0.1
2017-Nov-18 04:30N 37°57' E 023°38'510.5
2017-Nov-18 04:01N 37°52' E 023°39'1419.7
2017-Nov-18 03:17N 37°38' E 023°47'5 0.2
2017-Nov-16 20:45N 37°33' E 023°46'621.4
2017-Nov-16 20:29N 37°39' E 023°43'918.6
2017-Nov-16 20:00N 37°47' E 023°39'714.2
2017-Nov-16 19:30N 37°54' E 023°37'3 6.2
2017-Nov-16 19:00N 37°57' E 023°38'0 0.0
2017-Nov-16 18:30N 37°57' E 023°38'0 0.0
2017-Nov-16 17:58N 37°57' E 023°38'0 0.0
2017-Nov-16 17:28N 37°57' E 023°38'0 0.0
2017-Nov-16 16:58N 37°57' E 023°38'0 0.0
2017-Nov-16 16:28N 37°57' E 023°38'0 0.0
2017-Nov-16 16:00N 37°57' E 023°38'0 0.0
2017-Nov-16 15:30N 37°57' E 023°38'0 0.0
2017-Nov-16 15:00N 37°57' E 023°38'0 0.0
2017-Nov-16 14:30N 37°57' E 023°38'0 0.0
2017-Nov-16 13:59N 37°57' E 023°38'0 0.0
2017-Nov-16 13:29N 37°57' E 023°38'0 0.0
2017-Nov-16 12:59N 37°57' E 023°38'0 0.0
2017-Nov-16 12:29N 37°57' E 023°38'0 0.0
2017-Nov-16 11:59N 37°57' E 023°38'0 0.0
2017-Nov-16 11:28N 37°57' E 023°38'0 0.0
2017-Nov-16 10:58N 37°57' E 023°38'0 0.0
2017-Nov-16 10:28N 37°57' E 023°38'0 0.0
2017-Nov-16 09:58N 37°57' E 023°38'0 0.0
2017-Nov-16 09:30N 37°57' E 023°38'0 0.0
2017-Nov-16 09:00N 37°57' E 023°38'0 0.0
2017-Nov-16 08:30N 37°57' E 023°38'0 0.0
2017-Nov-16 08:00N 37°57' E 023°38'0 0.0
2017-Nov-16 07:30N 37°57' E 023°38'0 0.0
2017-Nov-16 07:00N 37°57' E 023°38'0 0.0
2017-Nov-16 06:30N 37°57' E 023°38'0 0.0
2017-Nov-16 06:00N 37°57' E 023°38'0 0.0
2017-Nov-16 05:30N 37°57' E 023°38'0 0.0
2017-Nov-16 05:00N 37°57' E 023°38'0 0.1
2017-Nov-16 04:30N 37°57' E 023°38'510.0
2017-Nov-16 04:01N 37°52' E 023°39'1020.0
2017-Nov-16 03:31N 37°42' E 023°44'1120.1
2017-Nov-16 02:58N 37°32' E 023°49'3 0.1
2017-Nov-14 20:44N 37°33' E 023°46'420.1
2017-Nov-14 20:30N 37°37' E 023°44'1020.1
2017-Nov-14 20:00N 37°47' E 023°39'918.8
2017-Nov-14 19:30N 37°56' E 023°37'1 2.5
2017-Nov-14 19:00N 37°57' E 023°38'0 0.0
2017-Nov-14 18:30N 37°57' E 023°38'0 0.0
2017-Nov-14 18:00N 37°57' E 023°38'0 0.0
2017-Nov-14 17:30N 37°57' E 023°38'0 0.0
2017-Nov-14 17:00N 37°57' E 023°38'0 0.0
2017-Nov-14 16:30N 37°57' E 023°38'0 0.0
2017-Nov-14 16:00N 37°57' E 023°38'0 0.0
2017-Nov-14 15:30N 37°57' E 023°38'0 0.0
2017-Nov-14 15:00N 37°57' E 023°38'0 0.0
2017-Nov-14 14:30N 37°57' E 023°38'0 0.0
2017-Nov-14 14:00N 37°57' E 023°38'0 0.0
2017-Nov-14 13:30N 37°57' E 023°38'0 0.0
2017-Nov-14 13:01N 37°57' E 023°38'0 0.0
2017-Nov-14 12:30N 37°57' E 023°38'0 0.0
2017-Nov-14 12:00N 37°57' E 023°38'0 0.0
2017-Nov-14 11:30N 37°57' E 023°38'0 0.0
2017-Nov-14 11:00N 37°57' E 023°38'0 0.0
2017-Nov-14 10:30N 37°57' E 023°38'0 0.0
2017-Nov-14 10:00N 37°57' E 023°38'0 0.0
2017-Nov-14 09:31N 37°57' E 023°38'0 0.0
2017-Nov-14 09:01N 37°57' E 023°38'0 0.0
2017-Nov-14 08:30N 37°57' E 023°38'0 0.0
2017-Nov-14 08:00N 37°57' E 023°38'0 0.0
2017-Nov-14 07:31N 37°57' E 023°38'  

Dump ship's entire track history